createdAt,value
2023-04-16T00:01:38.804Z,7.80
2023-04-16T00:04:06.168Z,7.80
2023-04-16T00:06:33.337Z,7.80
2023-04-16T00:09:00.323Z,7.80
2023-04-16T00:11:27.102Z,7.80
2023-04-16T00:13:53.796Z,7.80
2023-04-16T00:16:20.700Z,7.80
2023-04-16T00:18:47.504Z,7.80
2023-04-16T00:21:14.228Z,7.70
2023-04-16T00:23:41.076Z,7.80
2023-04-16T00:26:08.706Z,7.80
2023-04-16T00:28:35.684Z,7.80
2023-04-16T00:31:02.575Z,7.80
2023-04-16T00:33:30.243Z,7.70
2023-04-16T00:35:57.281Z,7.70
2023-04-16T00:38:24.148Z,7.70
2023-04-16T00:40:51.218Z,7.70
2023-04-16T00:43:23.039Z,7.70
2023-04-16T00:45:50.845Z,7.70
2023-04-16T00:48:17.934Z,7.70
2023-04-16T00:50:44.785Z,7.70
2023-04-16T00:53:11.774Z,7.70
2023-04-16T00:55:39.709Z,7.70
2023-04-16T00:58:06.611Z,7.70
2023-04-16T01:00:33.374Z,7.70
2023-04-16T01:03:00.515Z,7.70
2023-04-16T01:05:27.402Z,7.70
2023-04-16T01:07:54.205Z,7.70
2023-04-16T01:10:21.120Z,7.70
2023-04-16T01:12:48.052Z,7.70
2023-04-16T01:15:15.011Z,7.80
2023-04-16T01:17:41.758Z,7.80
2023-04-16T01:20:08.986Z,7.80
2023-04-16T01:22:35.831Z,7.80
2023-04-16T01:25:02.691Z,7.80
2023-04-16T01:27:29.557Z,7.80
2023-04-16T01:29:56.669Z,7.80
2023-04-16T01:32:23.479Z,7.80
2023-04-16T01:34:50.459Z,7.80
2023-04-16T01:37:17.728Z,7.90
2023-04-16T01:39:44.566Z,7.90
2023-04-16T01:42:11.582Z,7.90
2023-04-16T01:44:38.333Z,7.90
2023-04-16T01:47:05.170Z,7.90
2023-04-16T01:49:31.956Z,8.00
2023-04-16T01:51:58.766Z,8.00
2023-04-16T01:54:26.148Z,7.90
2023-04-16T01:56:52.922Z,8.00
2023-04-16T01:59:20.757Z,8.00
2023-04-16T02:01:47.619Z,8.00
2023-04-16T02:04:14.577Z,8.00
2023-04-16T02:06:41.890Z,8.00
2023-04-16T02:09:09.074Z,8.00
2023-04-16T02:11:36.426Z,8.10
2023-04-16T02:14:03.274Z,8.00
2023-04-16T02:16:30.028Z,8.00
2023-04-16T02:18:56.785Z,8.10
2023-04-16T02:21:23.540Z,8.10
2023-04-16T02:23:51.856Z,8.10
2023-04-16T02:26:18.872Z,8.10
2023-04-16T02:28:45.785Z,8.10
2023-04-16T02:31:12.601Z,8.10
2023-04-16T02:33:39.373Z,8.10
2023-04-16T02:36:06.586Z,8.10
2023-04-16T02:38:33.402Z,8.10
2023-04-16T02:41:00.300Z,8.10
2023-04-16T02:43:27.073Z,8.10
2023-04-16T02:45:53.889Z,8.10
2023-04-16T02:48:20.673Z,8.10
2023-04-16T02:50:47.344Z,8.10
2023-04-16T02:53:15.405Z,8.20
2023-04-16T02:55:42.166Z,8.20
2023-04-16T02:58:09.098Z,8.20
2023-04-16T03:00:36.132Z,8.20
2023-04-16T03:03:03.525Z,8.20
2023-04-16T03:05:30.377Z,8.20
2023-04-16T03:07:57.374Z,8.20
2023-04-16T03:10:24.272Z,8.20
2023-04-16T03:12:51.105Z,8.20
2023-04-16T03:15:18.074Z,8.20
2023-04-16T03:17:44.911Z,8.20
2023-04-16T03:20:12.050Z,8.20
2023-04-16T03:22:39.659Z,8.30
2023-04-16T03:25:07.881Z,8.20
2023-04-16T03:27:35.113Z,8.20
2023-04-16T03:30:02.342Z,8.20
2023-04-16T03:32:29.440Z,8.20
2023-04-16T03:34:56.262Z,8.20
2023-04-16T03:37:23.074Z,8.20
2023-04-16T03:39:49.866Z,8.20
2023-04-16T03:42:16.908Z,8.10
2023-04-16T03:44:43.859Z,8.10
2023-04-16T03:47:10.552Z,8.10
2023-04-16T03:49:37.379Z,8.00
2023-04-16T03:52:04.316Z,8.00
2023-04-16T03:54:31.065Z,8.00
2023-04-16T03:56:57.914Z,8.00
2023-04-16T03:59:24.730Z,8.00
2023-04-16T04:01:51.504Z,8.00
2023-04-16T04:04:18.324Z,8.00
2023-04-16T04:06:48.202Z,8.00
2023-04-16T04:09:16.249Z,8.00
2023-04-16T04:11:43.541Z,8.00
2023-04-16T04:14:10.297Z,8.00
2023-04-16T04:16:37.129Z,8.00
2023-04-16T04:19:03.962Z,8.00
2023-04-16T04:21:31.678Z,8.00
2023-04-16T04:23:58.559Z,8.00
2023-04-16T04:26:25.588Z,8.10
2023-04-16T04:28:52.405Z,8.10
2023-04-16T04:31:19.210Z,8.00
2023-04-16T04:33:46.416Z,8.10
2023-04-16T04:36:13.234Z,8.10
2023-04-16T04:38:39.932Z,8.10
2023-04-16T04:41:07.798Z,8.10
2023-04-16T04:43:34.595Z,8.10
2023-04-16T04:46:01.298Z,8.10
2023-04-16T04:48:28.331Z,8.10
2023-04-16T04:50:55.075Z,8.10
2023-04-16T04:53:21.907Z,8.10
2023-04-16T04:55:52.258Z,8.20
2023-04-16T04:58:21.039Z,8.20
2023-04-16T05:00:47.893Z,8.20
2023-04-16T05:03:20.637Z,8.20
2023-04-16T05:05:47.610Z,8.20
2023-04-16T05:08:14.402Z,8.20
2023-04-16T05:10:41.089Z,8.20
2023-04-16T05:13:07.809Z,8.20
2023-04-16T05:15:34.594Z,8.30
2023-04-16T05:18:01.392Z,8.20
2023-04-16T05:20:28.191Z,8.20
2023-04-16T05:22:55.469Z,8.10
2023-04-16T05:25:22.538Z,8.10
2023-04-16T05:27:49.327Z,8.10
2023-04-16T05:30:16.173Z,8.00
2023-04-16T05:32:42.912Z,8.00
2023-04-16T05:35:09.975Z,8.00
2023-04-16T05:37:36.925Z,8.00
2023-04-16T05:40:04.042Z,8.00
2023-04-16T05:42:31.137Z,8.00
2023-04-16T05:44:58.011Z,8.00
2023-04-16T05:47:24.894Z,8.00
2023-04-16T05:49:51.613Z,8.00
2023-04-16T05:52:18.533Z,8.00
2023-04-16T05:54:45.633Z,8.00
2023-04-16T05:57:14.058Z,8.00
2023-04-16T05:59:40.805Z,8.00
2023-04-16T06:02:07.650Z,8.00
2023-04-16T06:04:35.857Z,8.00
2023-04-16T06:07:02.756Z,8.10
2023-04-16T06:09:30.560Z,8.10
2023-04-16T06:11:58.003Z,8.10
2023-04-16T06:14:24.759Z,8.10
2023-04-16T06:16:51.531Z,8.10
2023-04-16T06:19:18.279Z,8.10
2023-04-16T06:21:45.531Z,8.10
2023-04-16T06:24:13.206Z,8.10
2023-04-16T06:26:40.114Z,8.10
2023-04-16T06:29:15.356Z,8.10
2023-04-16T06:31:42.334Z,8.10
2023-04-16T06:34:09.533Z,8.20
2023-04-16T06:36:37.714Z,8.20
2023-04-16T06:39:05.060Z,8.20
2023-04-16T06:41:32.136Z,8.20
2023-04-16T06:43:58.888Z,8.20
2023-04-16T06:46:25.799Z,8.30
2023-04-16T06:48:52.538Z,8.30
2023-04-16T06:51:19.356Z,8.30
2023-04-16T06:53:46.332Z,8.30
2023-04-16T06:56:13.050Z,8.40
2023-04-16T06:58:39.779Z,8.40
2023-04-16T07:01:06.598Z,8.40
2023-04-16T07:03:33.651Z,8.50
2023-04-16T07:06:00.497Z,8.50
2023-04-16T07:08:27.373Z,8.50
2023-04-16T07:10:54.615Z,8.50
2023-04-16T07:13:21.728Z,8.50
2023-04-16T07:15:48.705Z,8.50
2023-04-16T07:18:15.832Z,8.50
2023-04-16T07:20:42.935Z,8.50
2023-04-16T07:23:09.750Z,8.60
2023-04-16T07:25:36.571Z,8.60
2023-04-16T07:28:04.235Z,8.60
2023-04-16T07:30:34.296Z,8.60
2023-04-16T07:33:02.967Z,8.70
2023-04-16T07:35:30.463Z,8.70
2023-04-16T07:37:57.484Z,8.70
2023-04-16T07:40:24.852Z,8.70
2023-04-16T07:42:51.832Z,8.80
2023-04-16T07:45:19.166Z,8.80
2023-04-16T07:47:46.290Z,8.80
2023-04-16T07:50:13.514Z,8.80
2023-04-16T07:52:42.580Z,8.80
2023-04-16T07:55:09.625Z,8.90
2023-04-16T07:57:36.530Z,9.00
2023-04-16T08:00:07.639Z,9.00
2023-04-16T08:02:34.744Z,9.00
2023-04-16T08:05:01.845Z,9.10
2023-04-16T08:07:28.751Z,9.10
2023-04-16T08:09:55.733Z,9.10
2023-04-16T08:12:25.892Z,9.10
2023-04-16T08:14:53.101Z,9.20
2023-04-16T08:17:20.670Z,9.10
2023-04-16T08:19:47.633Z,9.20
2023-04-16T08:22:14.847Z,9.20
2023-04-16T08:24:41.685Z,9.20
2023-04-16T08:27:18.308Z,9.20
2023-04-16T08:29:46.305Z,9.20
2023-04-16T08:32:13.413Z,9.30
2023-04-16T08:34:40.478Z,9.30
2023-04-16T08:37:07.238Z,9.40
2023-04-16T08:39:34.332Z,9.40
2023-04-16T08:42:04.829Z,9.50
2023-04-16T08:44:38.009Z,9.50
2023-04-16T08:47:09.511Z,9.60
2023-04-16T08:49:43.199Z,9.60
2023-04-16T08:52:18.660Z,9.60
2023-04-16T08:54:58.526Z,9.70
2023-04-16T08:57:30.808Z,9.70
2023-04-16T08:59:58.395Z,9.70
2023-04-16T09:02:27.003Z,9.70
2023-04-16T09:04:55.034Z,9.70
2023-04-16T09:07:22.603Z,9.70
2023-04-16T09:09:51.117Z,9.70
2023-04-16T09:12:17.974Z,9.80
2023-04-16T09:14:49.582Z,9.80
2023-04-16T09:17:17.043Z,9.90
2023-04-16T09:19:44.300Z,9.90
2023-04-16T09:22:11.713Z,9.80
2023-04-16T09:24:42.132Z,9.80
2023-04-16T09:27:09.274Z,9.80
2023-04-16T09:29:37.826Z,9.90
2023-04-16T09:32:06.567Z,10.00
2023-04-16T09:34:34.777Z,10.00
2023-04-16T09:37:20.407Z,10.00
2023-04-16T09:39:56.475Z,10.10
2023-04-16T09:42:35.708Z,10.10
2023-04-16T09:45:05.792Z,10.10
2023-04-16T09:47:44.986Z,10.10
2023-04-16T09:50:18.202Z,10.10
2023-04-16T09:52:50.715Z,10.10
2023-04-16T09:55:23.461Z,10.10
2023-04-16T09:58:00.005Z,10.10
2023-04-16T10:00:28.606Z,10.20
2023-04-16T10:03:13.559Z,10.20
2023-04-16T10:05:41.352Z,10.20
2023-04-16T10:08:13.200Z,10.20
2023-04-16T10:10:41.187Z,10.30
2023-04-16T10:13:08.713Z,10.30
2023-04-16T10:15:35.857Z,10.30
2023-04-16T10:18:03.711Z,10.30
2023-04-16T10:20:31.225Z,10.30
2023-04-16T10:22:59.508Z,10.30
2023-04-16T10:25:27.528Z,10.40
2023-04-16T10:27:55.544Z,10.40
2023-04-16T10:30:23.822Z,10.30
2023-04-16T10:32:51.242Z,10.40
2023-04-16T10:35:21.648Z,10.50
2023-04-16T10:37:48.419Z,10.50
2023-04-16T10:40:26.120Z,10.50
2023-04-16T10:42:59.690Z,10.50
2023-04-16T10:45:37.841Z,10.50
2023-04-16T10:48:07.117Z,10.50
2023-04-16T10:50:38.526Z,10.50
2023-04-16T10:53:20.394Z,10.60
2023-04-16T10:56:12.147Z,10.60
2023-04-16T10:58:39.122Z,10.60
2023-04-16T11:01:31.706Z,10.60
2023-04-16T11:04:19.443Z,10.70
2023-04-16T11:07:18.550Z,10.80
2023-04-16T11:09:46.862Z,10.80
2023-04-16T11:12:38.348Z,10.80
2023-04-16T11:15:06.426Z,10.80
2023-04-16T11:17:47.769Z,10.80
2023-04-16T11:20:19.764Z,10.90
2023-04-16T11:22:50.583Z,10.90
2023-04-16T11:25:25.863Z,11.00
2023-04-16T11:27:54.915Z,11.00
2023-04-16T11:30:42.575Z,11.00
2023-04-16T11:33:11.508Z,11.00
2023-04-16T11:35:43.291Z,11.10
2023-04-16T11:38:10.036Z,11.10
2023-04-16T11:40:36.817Z,11.10
2023-04-16T11:43:14.852Z,11.10
2023-04-16T11:46:07.435Z,11.10
2023-04-16T11:48:53.936Z,11.10
2023-04-16T11:51:21.834Z,11.20
2023-04-16T11:53:53.092Z,11.40
2023-04-16T11:56:29.484Z,11.50
2023-04-16T11:59:07.202Z,11.50
2023-04-16T12:01:36.041Z,11.60
2023-04-16T12:04:06.140Z,11.60
2023-04-16T12:06:40.126Z,11.60
2023-04-16T12:09:25.475Z,11.60
2023-04-16T12:11:52.455Z,11.70
2023-04-16T12:14:19.924Z,11.80
2023-04-16T12:16:46.962Z,11.90
2023-04-16T12:19:21.012Z,11.90
2023-04-16T12:21:50.173Z,11.90
2023-04-16T12:24:27.610Z,11.90
2023-04-16T12:27:03.308Z,11.90
2023-04-16T12:29:42.477Z,11.90
2023-04-16T12:32:22.949Z,11.80
2023-04-16T12:34:52.717Z,11.90
2023-04-16T12:37:19.558Z,11.80
2023-04-16T12:39:47.924Z,11.90
2023-04-16T12:42:14.961Z,12.20
2023-04-16T12:44:41.819Z,12.70
2023-04-16T12:47:08.569Z,12.90
2023-04-16T12:49:36.423Z,13.00
2023-04-16T12:52:03.806Z,13.30
2023-04-16T12:54:31.274Z,13.60
2023-04-16T12:56:58.147Z,13.80
2023-04-16T12:59:24.927Z,13.70
2023-04-16T13:01:51.968Z,13.60
2023-04-16T13:04:19.240Z,13.60
2023-04-16T13:06:46.373Z,13.60
2023-04-16T13:09:13.190Z,13.70
2023-04-16T13:11:40.061Z,13.90
2023-04-16T13:14:06.884Z,13.80
2023-04-16T13:16:33.664Z,13.60
2023-04-16T13:19:00.360Z,13.60
2023-04-16T13:21:27.212Z,13.50
2023-04-16T13:23:54.267Z,13.50
2023-04-16T13:26:21.083Z,13.60
2023-04-16T13:28:48.026Z,13.80
2023-04-16T13:31:16.104Z,13.90
2023-04-16T13:33:43.139Z,13.90
2023-04-16T13:36:09.916Z,14.00
2023-04-16T13:38:36.685Z,13.90
2023-04-16T13:41:03.669Z,13.80
2023-04-16T13:43:30.433Z,13.70
2023-04-16T13:45:57.366Z,13.50
2023-04-16T13:48:24.203Z,13.40
2023-04-16T13:50:50.977Z,13.30
2023-04-16T13:53:17.772Z,13.20
2023-04-16T13:55:44.580Z,13.30
2023-04-16T13:58:14.030Z,13.20
2023-04-16T14:00:40.925Z,13.10
2023-04-16T14:03:07.838Z,13.10
2023-04-16T14:05:34.618Z,13.10
2023-04-16T14:08:01.306Z,13.10
2023-04-16T14:10:28.141Z,13.10
2023-04-16T14:13:04.130Z,13.00
2023-04-16T14:15:31.637Z,13.00
2023-04-16T14:17:58.408Z,13.00
2023-04-16T14:20:25.388Z,13.10
2023-04-16T14:22:52.183Z,13.10
2023-04-16T14:25:18.943Z,13.10
2023-04-16T14:27:45.934Z,13.00
2023-04-16T14:30:12.972Z,12.90
2023-04-16T14:32:39.747Z,12.90
2023-04-16T14:35:06.929Z,12.80
2023-04-16T14:37:35.935Z,12.70
2023-04-16T14:40:07.927Z,12.50
2023-04-16T14:42:36.720Z,12.40
2023-04-16T14:45:06.469Z,12.40
2023-04-16T14:47:37.957Z,12.30
2023-04-16T14:50:05.463Z,12.20
2023-04-16T14:52:32.700Z,12.20
2023-04-16T14:54:59.746Z,12.10
2023-04-16T14:57:26.805Z,12.10
2023-04-16T14:59:53.687Z,12.10
2023-04-16T15:02:20.582Z,12.10
2023-04-16T15:04:47.505Z,12.10
2023-04-16T15:07:14.258Z,12.20
2023-04-16T15:09:41.012Z,12.20
2023-04-16T15:12:07.725Z,12.20
2023-04-16T15:14:34.554Z,12.20
2023-04-16T15:17:01.481Z,12.20
2023-04-16T15:19:28.345Z,12.20
2023-04-16T15:21:55.991Z,12.20
2023-04-16T15:24:22.804Z,12.30
2023-04-16T15:26:49.680Z,12.30
2023-04-16T15:29:16.485Z,12.40
2023-04-16T15:31:43.319Z,12.40
2023-04-16T15:34:10.394Z,12.40
2023-04-16T15:36:37.431Z,12.40
2023-04-16T15:39:04.424Z,12.40
2023-04-16T15:41:31.999Z,12.40
2023-04-16T15:44:08.164Z,12.40
2023-04-16T15:46:35.074Z,12.40
2023-04-16T15:49:01.884Z,12.40
2023-04-16T15:51:38.289Z,12.40
2023-04-16T15:54:05.318Z,12.40
2023-04-16T15:56:37.337Z,12.40
2023-04-16T15:59:05.130Z,12.40
2023-04-16T16:01:32.065Z,12.40
2023-04-16T16:03:59.023Z,12.40
2023-04-16T16:06:27.415Z,12.40
2023-04-16T16:08:54.752Z,12.30
2023-04-16T16:11:21.908Z,12.20
2023-04-16T16:13:48.650Z,12.20
2023-04-16T16:16:15.489Z,12.20
2023-04-16T16:18:42.523Z,12.30
2023-04-16T16:21:09.413Z,12.30
2023-04-16T16:23:36.160Z,12.20
2023-04-16T16:26:05.690Z,12.10
2023-04-16T16:28:32.833Z,12.00
2023-04-16T16:31:01.510Z,11.90
2023-04-16T16:33:28.870Z,11.80
2023-04-16T16:35:55.897Z,11.80
2023-04-16T16:38:22.928Z,11.70
2023-04-16T16:40:49.797Z,11.60
2023-04-16T16:43:17.157Z,11.50
2023-04-16T16:45:44.012Z,11.40
2023-04-16T16:48:10.791Z,11.30
2023-04-16T16:50:37.543Z,11.20
2023-04-16T16:53:04.329Z,11.20
2023-04-16T16:55:31.450Z,11.30
2023-04-16T16:57:58.635Z,11.30
2023-04-16T17:00:25.496Z,11.30
2023-04-16T17:02:52.657Z,11.30
2023-04-16T17:05:19.936Z,11.30
2023-04-16T17:07:46.716Z,11.30
2023-04-16T17:10:20.161Z,11.30
2023-04-16T17:12:51.264Z,11.30
2023-04-16T17:15:20.697Z,11.20
2023-04-16T17:17:48.724Z,11.20
2023-04-16T17:20:16.025Z,11.20
2023-04-16T17:22:42.764Z,11.10
2023-04-16T17:25:09.918Z,11.10
2023-04-16T17:27:36.776Z,11.10
2023-04-16T17:30:05.571Z,11.10
2023-04-16T17:32:33.753Z,11.10
2023-04-16T17:35:02.064Z,11.10
2023-04-16T17:37:32.176Z,11.10
2023-04-16T17:40:01.953Z,11.00
2023-04-16T17:42:38.626Z,11.00
2023-04-16T17:45:09.448Z,11.00
2023-04-16T17:47:36.506Z,11.00
2023-04-16T17:50:07.865Z,11.00
2023-04-16T17:52:34.667Z,11.00
2023-04-16T17:55:01.884Z,11.00
2023-04-16T17:57:28.817Z,10.90
2023-04-16T17:59:56.071Z,10.90
2023-04-16T18:02:23.579Z,10.80
2023-04-16T18:04:51.684Z,10.70
2023-04-16T18:07:19.381Z,10.60
2023-04-16T18:09:46.136Z,10.50
2023-04-16T18:12:12.815Z,10.50
2023-04-16T18:14:40.616Z,10.50
2023-04-16T18:17:07.503Z,10.40
2023-04-16T18:19:35.604Z,10.40
2023-04-16T18:22:02.726Z,10.40
2023-04-16T18:24:29.510Z,10.40
2023-04-16T18:26:56.802Z,10.30
2023-04-16T18:29:25.233Z,10.30
2023-04-16T18:31:52.376Z,10.30
2023-04-16T18:34:19.440Z,10.20
2023-04-16T18:36:46.283Z,10.20
2023-04-16T18:39:13.077Z,10.20
2023-04-16T18:41:43.494Z,10.10
2023-04-16T18:44:11.018Z,10.10
2023-04-16T18:46:37.774Z,10.10
2023-04-16T18:49:04.575Z,10.00
2023-04-16T18:51:31.739Z,10.00
2023-04-16T18:53:58.570Z,9.90
2023-04-16T18:56:25.593Z,9.90
2023-04-16T18:58:52.423Z,9.90
2023-04-16T19:01:19.383Z,9.90
2023-04-16T19:03:46.225Z,9.90
2023-04-16T19:06:13.000Z,9.90
2023-04-16T19:08:39.849Z,9.90
2023-04-16T19:11:06.597Z,9.90
2023-04-16T19:13:33.569Z,9.90
2023-04-16T19:16:01.706Z,9.90
2023-04-16T19:18:28.656Z,9.90
2023-04-16T19:21:00.056Z,9.90
2023-04-16T19:23:27.455Z,9.80
2023-04-16T19:25:56.324Z,9.90
2023-04-16T19:28:23.963Z,9.80
2023-04-16T19:30:51.586Z,9.80
2023-04-16T19:33:18.969Z,9.80
2023-04-16T19:35:46.741Z,9.80
2023-04-16T19:38:14.804Z,9.80
2023-04-16T19:40:45.536Z,9.80
2023-04-16T19:43:12.594Z,9.80
2023-04-16T19:45:46.793Z,9.80
2023-04-16T19:48:14.575Z,9.70
2023-04-16T19:50:42.300Z,9.70
2023-04-16T19:53:09.468Z,9.70
2023-04-16T19:55:36.519Z,9.70
2023-04-16T19:58:06.528Z,9.60
2023-04-16T20:00:34.259Z,9.60
2023-04-16T20:03:01.519Z,9.60
2023-04-16T20:05:29.676Z,9.60
2023-04-16T20:07:57.074Z,9.60
2023-04-16T20:10:24.513Z,9.50
2023-04-16T20:12:51.498Z,9.50
2023-04-16T20:15:18.993Z,9.50
2023-04-16T20:17:46.151Z,9.50
2023-04-16T20:20:15.810Z,9.40
2023-04-16T20:22:43.349Z,9.40
2023-04-16T20:25:10.330Z,9.40
2023-04-16T20:27:37.294Z,9.40
2023-04-16T20:30:06.009Z,9.40
2023-04-16T20:32:33.156Z,9.30
2023-04-16T20:35:00.242Z,9.30
2023-04-16T20:37:29.067Z,9.30
2023-04-16T20:39:56.297Z,9.30
2023-04-16T20:42:23.547Z,9.30
2023-04-16T20:44:50.584Z,9.30
2023-04-16T20:47:17.422Z,9.30
2023-04-16T20:49:47.778Z,9.30
2023-04-16T20:52:16.046Z,9.30
2023-04-16T20:54:42.914Z,9.30
2023-04-16T20:57:09.739Z,9.20
2023-04-16T20:59:36.977Z,9.20
2023-04-16T21:02:03.941Z,9.20
2023-04-16T21:04:31.006Z,9.20
2023-04-16T21:06:57.830Z,9.20
2023-04-16T21:09:24.726Z,9.20
2023-04-16T21:11:51.704Z,9.20
2023-04-16T21:14:18.776Z,9.20
2023-04-16T21:16:45.535Z,9.20
2023-04-16T21:19:12.437Z,9.20
2023-04-16T21:21:39.462Z,9.30
2023-04-16T21:24:06.752Z,9.30
2023-04-16T21:26:33.498Z,9.20
2023-04-16T21:29:00.320Z,9.20
2023-04-16T21:31:28.063Z,9.20
2023-04-16T21:33:55.168Z,9.20
2023-04-16T21:36:21.874Z,9.20
2023-04-16T21:38:48.688Z,9.20
2023-04-16T21:41:16.521Z,9.20
2023-04-16T21:43:43.217Z,9.20
2023-04-16T21:46:10.273Z,9.20
2023-04-16T21:48:37.201Z,9.10
2023-04-16T21:51:07.100Z,9.10
2023-04-16T21:53:34.238Z,9.10
2023-04-16T21:56:00.969Z,9.10
2023-04-16T21:58:27.762Z,9.10
2023-04-16T22:00:54.783Z,9.10
2023-04-16T22:03:30.553Z,9.10
2023-04-16T22:06:01.567Z,9.10
2023-04-16T22:08:31.781Z,9.10
2023-04-16T22:10:59.708Z,9.10
2023-04-16T22:13:27.229Z,9.10
2023-04-16T22:15:55.209Z,9.10
2023-04-16T22:18:24.355Z,9.10
2023-04-16T22:20:55.669Z,9.00
2023-04-16T22:23:23.505Z,9.00
2023-04-16T22:25:50.492Z,9.00
2023-04-16T22:28:17.244Z,9.00
2023-04-16T22:30:43.984Z,9.00
2023-04-16T22:33:11.266Z,8.90
2023-04-16T22:35:38.146Z,8.90
2023-04-16T22:38:05.005Z,8.90
2023-04-16T22:40:31.972Z,8.80
2023-04-16T22:42:58.827Z,8.80
2023-04-16T22:45:26.276Z,8.80
2023-04-16T22:47:53.164Z,8.80
2023-04-16T22:50:20.189Z,8.80
2023-04-16T22:52:47.091Z,8.90
2023-04-16T22:55:14.032Z,8.80
2023-04-16T22:57:40.908Z,8.80
2023-04-16T23:00:14.697Z,8.80
2023-04-16T23:02:41.544Z,8.70
2023-04-16T23:05:08.879Z,8.70
2023-04-16T23:07:35.686Z,8.60
2023-04-16T23:10:02.479Z,8.60
2023-04-16T23:12:29.249Z,8.60
2023-04-16T23:14:56.323Z,8.50
2023-04-16T23:17:26.490Z,8.50
2023-04-16T23:19:53.342Z,8.50
2023-04-16T23:22:20.059Z,8.40
2023-04-16T23:24:47.194Z,8.50
2023-04-16T23:27:14.062Z,8.40
2023-04-16T23:29:41.019Z,8.40
2023-04-16T23:32:07.808Z,8.40
2023-04-16T23:34:34.613Z,8.40
2023-04-16T23:37:01.468Z,8.40
2023-04-16T23:39:28.210Z,8.30
2023-04-16T23:41:54.984Z,8.30
2023-04-16T23:44:21.660Z,8.30
2023-04-16T23:46:48.429Z,8.30
2023-04-16T23:49:15.250Z,8.30
2023-04-16T23:51:42.025Z,8.30
2023-04-16T23:54:08.849Z,8.30
2023-04-16T23:56:35.594Z,8.30
2023-04-16T23:59:02.504Z,8.30
